Montevallo, AL

1:20 AM CST on March 04, 2015 (GMT -0600)
KALMAYLE2 | Change Station
CLOSE
Current Station
Personal Weather Station
Location: Maylene, AL
Elevation: 679 ft
Nearby Weather Stations

Elev 679 ft 33.21 °N, 86.86 °W | Updated 42 seconds ago

Mostly Cloudy
Mostly Cloudy
61.9 °F
Feels Like 61.9 °F
N
1.6
Wind Variable Wind from SW
Gusts 3.8 mph

Today
High -- | Low -- °F
--% Chance of Precip.
Yesterday
High -- | Low -- °F
Precip. -- in
6:12 AM 5:46 PM
Waxing Gibbous, 98% visible
Pressure 30.03 in
Visibility 10.0 miles
Clouds Scattered Clouds 1000 ft
Mostly Cloudy 2800 ft
Dew Point 62 °F
Humidity 99%
Rainfall 0.00 in
Snow Depth Not available.
UV 0 out of 12
Pollen 5.30 out of 12
Air Quality Not available.
Flu Activity Not available.
SPECI KEET 040714Z AUTO 19007KT 10SM SCT010 BKN028 17/16 A3003 RMK AO2 T01720156

More Conditions Fewer Conditions

Pressure 30.03 in
Visibility 10.0 miles
Clouds Scattered Clouds 1000 ft
Mostly Cloudy 2800 ft
Dew Point 62 °F
Humidity 99%
Rainfall 0.00 in
Snow Depth Not available.
UV 0 out of 12
Pollen 5.30 out of 12
Air Quality Not available.
Flu Activity Not available.
SPECI KEET 040714Z AUTO 19007KT 10SM SCT010 BKN028 17/16 A3003 RMK AO2 T01720156

More Conditions Fewer Conditions

10-Day Weather Forecast

Almanac

Astronomy

Mar. 04, 2015 Rise Set
Actual Time
Civil Twilight
Nautical Twilight
Astronomical Twilight
Moon
Length of Visible Light
Length of Day
Tomorrow will be .
, % of the Moon is Illuminated

Today's Extremes

State Highs State Lows

Community

WunderPhotos

Upload Photos

1,802,402 photos uploaded!

WunderBlogs® & News

Nearby

Air Quality

  Air Quality AQ Index Pollutant
Not available.

Snow Depth

Station Depth Elevation

Earthquake Activity

City Distance Mag. Time & Date
Minimum magnitude displayed is 2.5.

Coastal Water Temperatures

Place Temperature

Nearby Weather Stations